createdAt,value
2018-02-24T00:02:28.524Z,3.00
2018-02-24T00:04:56.272Z,3.00
2018-02-24T00:07:23.937Z,3.00
2018-02-24T00:09:51.812Z,3.00
2018-02-24T00:12:19.472Z,3.10
2018-02-24T00:14:47.320Z,3.20
2018-02-24T00:17:15.416Z,3.20
2018-02-24T00:19:42.981Z,3.20
2018-02-24T00:22:11.227Z,3.10
2018-02-24T00:24:38.861Z,3.10
2018-02-24T00:27:07.109Z,3.30
2018-02-24T00:29:34.781Z,3.20
2018-02-24T00:32:02.462Z,3.20
2018-02-24T00:34:30.806Z,3.30
2018-02-24T00:36:59.432Z,3.30
2018-02-24T00:39:27.821Z,3.40
2018-02-24T00:41:56.197Z,3.30
2018-02-24T00:44:24.436Z,3.30
2018-02-24T00:46:51.933Z,3.30
2018-02-24T00:49:20.175Z,3.30
2018-02-24T00:51:47.649Z,3.20
2018-02-24T00:54:15.142Z,3.30
2018-02-24T00:56:42.615Z,3.50
2018-02-24T00:59:10.138Z,3.50
2018-02-24T01:01:38.392Z,3.50
2018-02-24T01:04:05.870Z,3.40
2018-02-24T01:06:34.110Z,3.40
2018-02-24T01:09:01.602Z,3.30
2018-02-24T01:11:29.835Z,3.50
2018-02-24T01:13:57.306Z,3.40
2018-02-24T01:16:24.846Z,3.50
2018-02-24T01:18:52.319Z,3.50
2018-02-24T01:21:19.792Z,3.40
2018-02-24T01:23:47.281Z,3.50
2018-02-24T01:26:15.528Z,3.40
2018-02-24T01:28:42.996Z,3.30
2018-02-24T01:31:10.489Z,3.40
2018-02-24T01:33:37.963Z,3.50
2018-02-24T01:36:05.441Z,3.50
2018-02-24T01:38:32.934Z,3.40
2018-02-24T01:41:00.404Z,3.50
2018-02-24T01:43:28.689Z,3.70
2018-02-24T01:45:56.155Z,3.60
2018-02-24T01:48:24.392Z,3.50
2018-02-24T01:50:51.945Z,3.50
2018-02-24T01:53:19.440Z,3.40
2018-02-24T01:55:47.688Z,3.60
2018-02-24T01:58:15.168Z,3.50
2018-02-24T02:00:43.431Z,3.60
2018-02-24T02:03:10.913Z,3.50
2018-02-24T02:05:39.173Z,3.50
2018-02-24T02:08:06.640Z,3.50
2018-02-24T02:10:34.885Z,3.50
2018-02-24T02:13:03.152Z,3.50
2018-02-24T02:15:30.633Z,3.40
2018-02-24T02:17:58.107Z,3.60
2018-02-24T02:20:25.605Z,3.60
2018-02-24T02:22:53.076Z,3.60
2018-02-24T02:25:20.548Z,3.70
2018-02-24T02:27:48.053Z,3.80
2018-02-24T02:30:16.298Z,3.70
2018-02-24T02:32:43.785Z,3.60
2018-02-24T02:35:12.063Z,3.50
2018-02-24T02:37:40.312Z,3.60
2018-02-24T02:40:07.789Z,3.50
2018-02-24T02:42:35.304Z,3.60
2018-02-24T02:45:02.781Z,3.70
2018-02-24T02:47:30.259Z,3.80
2018-02-24T02:49:57.773Z,3.90
2018-02-24T02:52:25.253Z,3.80
2018-02-24T02:54:52.729Z,3.70
2018-02-24T02:57:20.223Z,3.70
2018-02-24T02:59:48.491Z,3.70
2018-02-24T03:02:15.958Z,3.70
2018-02-24T03:04:44.219Z,3.70
2018-02-24T03:07:11.690Z,3.70
2018-02-24T03:09:39.947Z,3.70
2018-02-24T03:12:07.444Z,3.60
2018-02-24T03:14:34.916Z,3.70
2018-02-24T03:17:02.404Z,3.90
2018-02-24T03:19:29.890Z,3.70
2018-02-24T03:21:58.151Z,3.70
2018-02-24T03:24:25.648Z,3.70
2018-02-24T03:26:53.126Z,3.70
2018-02-24T03:29:21.368Z,3.80
2018-02-24T03:31:49.633Z,3.80
2018-02-24T03:34:17.108Z,3.70
2018-02-24T03:36:45.352Z,4.10
2018-02-24T03:39:12.848Z,4.00
2018-02-24T03:41:41.101Z,3.90
2018-02-24T03:44:08.572Z,3.80
2018-02-24T03:46:36.829Z,3.80
2018-02-24T03:49:04.305Z,3.70
2018-02-24T03:51:32.580Z,3.90
2018-02-24T03:54:00.828Z,3.90
2018-02-24T03:56:28.312Z,3.80
2018-02-24T03:58:55.795Z,3.90
2018-02-24T04:01:24.054Z,3.80
2018-02-24T04:03:52.308Z,3.80
2018-02-24T04:06:19.784Z,3.70
2018-02-24T04:08:47.266Z,3.90
2018-02-24T04:11:15.516Z,4.10
2018-02-24T04:13:42.989Z,4.00
2018-02-24T04:16:11.248Z,4.00
2018-02-24T04:18:38.724Z,4.00
2018-02-24T04:21:06.964Z,4.10
2018-02-24T04:23:34.457Z,4.10
2018-02-24T04:26:02.697Z,4.00
2018-02-24T04:28:30.171Z,3.90
2018-02-24T04:30:57.648Z,4.10
2018-02-24T04:33:25.893Z,4.00
2018-02-24T04:35:53.388Z,3.90
2018-02-24T04:38:21.625Z,4.00
2018-02-24T04:40:49.102Z,4.00
2018-02-24T04:43:16.592Z,4.00
2018-02-24T04:45:44.832Z,3.90
2018-02-24T04:48:12.325Z,3.90
2018-02-24T04:50:40.565Z,4.00
2018-02-24T04:53:08.041Z,3.90
2018-02-24T04:55:35.532Z,3.90
2018-02-24T04:58:03.009Z,4.00
2018-02-24T05:00:30.481Z,4.00
2018-02-24T05:02:57.972Z,4.10
2018-02-24T05:05:25.440Z,4.10
2018-02-24T05:07:52.910Z,4.10
2018-02-24T05:10:21.167Z,4.20
2018-02-24T05:12:48.640Z,4.10
2018-02-24T05:15:16.877Z,4.30
2018-02-24T05:17:44.374Z,4.20
2018-02-24T05:20:12.621Z,4.40
2018-02-24T05:22:40.096Z,4.40
2018-02-24T05:25:07.593Z,4.40
2018-02-24T05:27:35.061Z,4.30
2018-02-24T05:30:02.541Z,4.30
2018-02-24T05:32:30.045Z,4.40
2018-02-24T05:34:58.281Z,4.40
2018-02-24T05:37:25.754Z,4.30
2018-02-24T05:39:53.240Z,4.40
2018-02-24T05:42:21.480Z,4.30
2018-02-24T05:44:49.718Z,4.30
2018-02-24T05:47:17.200Z,4.30
2018-02-24T05:49:44.681Z,4.30
2018-02-24T05:52:12.171Z,4.30
2018-02-24T05:54:40.444Z,4.30
2018-02-24T05:57:08.717Z,4.10
2018-02-24T05:59:36.980Z,4.00
2018-02-24T06:02:05.970Z,4.00
2018-02-24T06:04:33.441Z,4.00
2018-02-24T06:07:00.943Z,4.00
2018-02-24T06:09:28.466Z,4.00
2018-02-24T06:11:56.028Z,4.10
2018-02-24T06:14:24.293Z,4.20
2018-02-24T06:16:54.868Z,4.10
2018-02-24T06:19:30.836Z,4.20
2018-02-24T06:21:59.636Z,4.20
2018-02-24T06:24:27.411Z,4.10
2018-02-24T06:26:55.319Z,4.00
2018-02-24T06:29:23.560Z,4.30
2018-02-24T06:31:51.029Z,4.20
2018-02-24T06:34:25.941Z,4.10
2018-02-24T06:36:53.798Z,4.30
2018-02-24T06:39:22.174Z,4.00
2018-02-24T06:41:49.724Z,4.00
2018-02-24T06:44:17.200Z,4.30
2018-02-24T06:46:44.816Z,4.10
2018-02-24T06:49:13.451Z,4.30
2018-02-24T06:51:40.921Z,4.30
2018-02-24T06:54:08.593Z,4.60
2018-02-24T06:56:36.084Z,4.40
2018-02-24T06:59:04.330Z,4.20
2018-02-24T07:01:31.909Z,4.20
2018-02-24T07:03:59.720Z,4.50
2018-02-24T07:06:27.398Z,4.70
2018-02-24T07:08:55.212Z,4.70
2018-02-24T07:11:23.273Z,4.70
2018-02-24T07:13:50.823Z,4.70
2018-02-24T07:16:18.296Z,4.50
2018-02-24T07:18:45.781Z,4.60
2018-02-24T07:21:14.017Z,4.60
2018-02-24T07:23:41.514Z,4.60
2018-02-24T07:26:09.753Z,4.60
2018-02-24T07:28:37.221Z,4.50
2018-02-24T07:31:04.717Z,4.40
2018-02-24T07:33:33.040Z,4.50
2018-02-24T07:36:00.519Z,4.40
2018-02-24T07:38:28.021Z,4.50
2018-02-24T07:40:55.550Z,4.50
2018-02-24T07:43:23.792Z,4.80
2018-02-24T07:45:51.280Z,4.80
2018-02-24T07:48:18.755Z,4.90
2018-02-24T07:50:46.996Z,4.60
2018-02-24T07:53:14.489Z,4.60
2018-02-24T07:55:42.726Z,4.90
2018-02-24T07:58:10.197Z,4.80
2018-02-24T08:00:37.688Z,4.90
2018-02-24T08:03:05.926Z,4.80
2018-02-24T08:05:33.398Z,4.80
2018-02-24T08:08:00.884Z,4.80
2018-02-24T08:10:29.138Z,5.00
2018-02-24T08:12:56.629Z,5.00
2018-02-24T08:15:24.161Z,5.10
2018-02-24T08:17:52.400Z,5.10
2018-02-24T08:20:19.892Z,5.10
2018-02-24T08:22:47.363Z,5.00
2018-02-24T08:25:15.603Z,5.10
2018-02-24T08:27:43.100Z,5.10
2018-02-24T08:30:11.348Z,5.10
2018-02-24T08:32:38.870Z,5.10
2018-02-24T08:35:06.348Z,5.10
2018-02-24T08:37:33.825Z,5.30
2018-02-24T08:40:01.408Z,5.40
2018-02-24T08:42:29.649Z,5.30
2018-02-24T08:44:57.127Z,5.30
2018-02-24T08:47:24.621Z,5.40
2018-02-24T08:49:52.863Z,5.40
2018-02-24T08:52:21.108Z,5.40
2018-02-24T08:54:48.617Z,5.30
2018-02-24T08:57:16.889Z,5.50
2018-02-24T08:59:45.129Z,5.50
2018-02-24T09:02:12.609Z,5.50
2018-02-24T09:04:40.080Z,5.50
2018-02-24T09:07:07.560Z,5.50
2018-02-24T09:09:35.820Z,5.60
2018-02-24T09:12:03.380Z,5.60
2018-02-24T09:14:30.881Z,5.60
2018-02-24T09:16:58.356Z,5.60
2018-02-24T09:19:25.828Z,5.70
2018-02-24T09:21:53.328Z,5.60
2018-02-24T09:24:21.564Z,5.80
2018-02-24T09:26:49.032Z,5.80
2018-02-24T09:29:18.033Z,5.90
2018-02-24T09:31:45.511Z,5.80
2018-02-24T09:34:13.750Z,5.90
2018-02-24T09:36:41.245Z,5.90
2018-02-24T09:39:09.511Z,6.10
2018-02-24T09:41:37.736Z,6.10
2018-02-24T09:44:05.240Z,6.10
2018-02-24T09:46:33.476Z,6.20
2018-02-24T09:49:00.993Z,6.20
2018-02-24T09:51:29.253Z,6.30
2018-02-24T09:53:58.260Z,6.20
2018-02-24T09:56:25.728Z,6.20
2018-02-24T09:58:53.990Z,6.30
2018-02-24T10:01:21.464Z,6.20
2018-02-24T10:03:49.725Z,6.30
2018-02-24T10:06:17.196Z,6.30
2018-02-24T10:08:45.437Z,6.40
2018-02-24T10:11:12.956Z,6.40
2018-02-24T10:13:40.428Z,6.50
2018-02-24T10:16:07.916Z,6.50
2018-02-24T10:18:35.384Z,6.60
2018-02-24T10:21:03.624Z,6.40
2018-02-24T10:23:31.110Z,6.40
2018-02-24T10:25:58.579Z,6.50
2018-02-24T10:28:26.095Z,6.50
2018-02-24T10:30:53.572Z,6.60
2018-02-24T10:33:21.049Z,6.80
2018-02-24T10:35:48.636Z,6.90
2018-02-24T10:38:16.912Z,6.80
2018-02-24T10:40:45.172Z,6.90
2018-02-24T10:43:12.660Z,6.80
2018-02-24T10:45:40.905Z,6.90
2018-02-24T10:48:08.396Z,6.80
2018-02-24T10:50:36.672Z,7.10
2018-02-24T10:53:04.924Z,7.20
2018-02-24T10:55:32.449Z,7.20
2018-02-24T10:57:59.918Z,7.10
2018-02-24T11:00:27.530Z,7.10
2018-02-24T11:02:55.768Z,7.20
2018-02-24T11:05:23.236Z,7.20
2018-02-24T11:07:50.729Z,7.30
2018-02-24T11:10:18.964Z,7.60
2018-02-24T11:12:46.441Z,7.50
2018-02-24T11:15:14.009Z,7.40
2018-02-24T11:17:42.271Z,7.50
2018-02-24T11:20:09.778Z,7.40
2018-02-24T11:22:37.252Z,7.50
2018-02-24T11:25:04.741Z,7.50
2018-02-24T11:27:32.213Z,7.40
2018-02-24T11:29:59.684Z,7.50
2018-02-24T11:32:27.932Z,7.50
2018-02-24T11:34:55.400Z,7.50
2018-02-24T11:37:22.894Z,7.60
2018-02-24T11:39:51.129Z,7.70
2018-02-24T11:42:18.608Z,7.70
2018-02-24T11:44:46.897Z,7.80
2018-02-24T11:47:15.142Z,7.80
2018-02-24T11:49:42.728Z,7.80
2018-02-24T11:52:11.004Z,7.80
2018-02-24T11:54:38.560Z,7.70
2018-02-24T11:57:06.813Z,7.90
2018-02-24T11:59:34.294Z,7.90
2018-02-24T12:02:01.785Z,7.80
2018-02-24T12:04:29.280Z,7.80
2018-02-24T12:06:56.752Z,7.80
2018-02-24T12:09:24.292Z,7.80
2018-02-24T12:11:51.772Z,7.70
2018-02-24T12:14:19.249Z,7.70
2018-02-24T12:16:46.749Z,7.70
2018-02-24T12:19:14.270Z,7.80
2018-02-24T12:21:42.517Z,8.00
2018-02-24T12:24:10.122Z,7.90
2018-02-24T12:26:38.372Z,7.70
2018-02-24T12:29:05.842Z,7.70
2018-02-24T12:31:34.154Z,7.80
2018-02-24T12:34:02.395Z,7.70
2018-02-24T12:36:30.644Z,7.70
2018-02-24T12:38:58.117Z,7.60
2018-02-24T12:41:25.600Z,7.60
2018-02-24T12:43:53.840Z,7.40
2018-02-24T12:46:21.337Z,7.40
2018-02-24T12:48:49.590Z,7.40
2018-02-24T12:51:17.068Z,7.40
2018-02-24T12:53:45.323Z,7.30
2018-02-24T12:56:12.804Z,7.30
2018-02-24T12:58:41.041Z,8.60
2018-02-24T13:01:10.477Z,8.60
2018-02-24T13:03:38.753Z,7.50
2018-02-24T13:06:06.258Z,7.50
2018-02-24T13:08:33.748Z,7.40
2018-02-24T13:11:01.231Z,7.60
2018-02-24T13:13:28.731Z,7.60
2018-02-24T13:15:56.210Z,7.40
2018-02-24T13:18:23.696Z,7.40
2018-02-24T13:20:51.198Z,7.50
2018-02-24T13:23:18.674Z,7.30
2018-02-24T13:25:46.143Z,7.30
2018-02-24T13:28:13.628Z,8.60
2018-02-24T13:30:41.152Z,7.90
2018-02-24T13:33:08.713Z,7.60
2018-02-24T13:35:36.249Z,7.60
2018-02-24T13:38:03.741Z,7.50
2018-02-24T13:40:31.365Z,7.50
2018-02-24T13:42:59.618Z,7.30
2018-02-24T13:45:27.101Z,7.30
2018-02-24T13:47:55.381Z,7.50
2018-02-24T13:50:23.638Z,7.60
2018-02-24T13:52:51.897Z,7.60
2018-02-24T13:55:19.394Z,7.50
2018-02-24T13:57:47.653Z,7.60
2018-02-24T14:00:15.973Z,7.50
2018-02-24T14:02:43.461Z,7.50
2018-02-24T14:05:11.720Z,7.80
2018-02-24T14:07:39.222Z,7.70
2018-02-24T14:10:06.701Z,7.80
2018-02-24T14:12:34.202Z,7.80
2018-02-24T14:15:01.742Z,7.70
2018-02-24T14:17:29.226Z,7.70
2018-02-24T14:19:56.746Z,7.70
2018-02-24T14:22:24.249Z,7.70
2018-02-24T14:24:51.729Z,7.60
2018-02-24T14:27:19.245Z,7.60
2018-02-24T14:29:46.784Z,7.50
2018-02-24T14:32:14.324Z,7.40
2018-02-24T14:34:42.604Z,7.50
2018-02-24T14:37:10.860Z,7.40
2018-02-24T14:39:39.113Z,7.40
2018-02-24T14:42:06.762Z,7.30
2018-02-24T14:44:34.275Z,7.50
2018-02-24T14:47:02.535Z,7.30
2018-02-24T14:49:30.030Z,7.30
2018-02-24T14:51:58.298Z,7.60
2018-02-24T14:54:26.636Z,7.40
2018-02-24T14:56:54.144Z,7.40
2018-02-24T14:59:21.631Z,7.40
2018-02-24T15:01:49.131Z,7.50
2018-02-24T15:04:18.127Z,7.60
2018-02-24T15:06:47.203Z,7.60
2018-02-24T15:09:14.709Z,7.60
2018-02-24T15:11:43.112Z,7.70
2018-02-24T15:14:10.588Z,7.60
2018-02-24T15:16:38.112Z,7.60
2018-02-24T15:19:05.666Z,7.60
2018-02-24T15:21:34.072Z,7.60
2018-02-24T15:24:01.585Z,7.50
2018-02-24T15:26:29.065Z,7.60
2018-02-24T15:28:57.346Z,7.70
2018-02-24T15:31:24.904Z,7.60
2018-02-24T15:33:53.149Z,7.70
2018-02-24T15:36:20.645Z,7.70
2018-02-24T15:38:48.932Z,7.60
2018-02-24T15:41:16.449Z,7.60
2018-02-24T15:43:44.063Z,7.70
2018-02-24T15:46:11.534Z,7.70
2018-02-24T15:48:39.040Z,7.60
2018-02-24T15:51:07.372Z,7.60
2018-02-24T15:53:34.856Z,7.50
2018-02-24T15:56:02.357Z,7.60
2018-02-24T15:58:30.711Z,7.50
2018-02-24T16:00:58.964Z,7.50
2018-02-24T16:03:26.553Z,7.50
2018-02-24T16:05:54.808Z,7.50
2018-02-24T16:08:22.325Z,7.40
2018-02-24T16:10:49.806Z,7.50
2018-02-24T16:13:17.283Z,7.50
2018-02-24T16:15:44.868Z,7.50
2018-02-24T16:18:13.119Z,7.50
2018-02-24T16:20:40.748Z,7.40
2018-02-24T16:23:08.240Z,7.50
2018-02-24T16:25:35.716Z,7.50
2018-02-24T16:28:03.201Z,7.50
2018-02-24T16:30:31.449Z,7.50
2018-02-24T16:33:00.424Z,7.40
2018-02-24T16:35:27.908Z,7.50
2018-02-24T16:37:55.447Z,7.50
2018-02-24T16:40:22.936Z,7.40
2018-02-24T16:42:51.205Z,7.40
2018-02-24T16:45:19.489Z,7.40
2018-02-24T16:47:47.743Z,7.50
2018-02-24T16:50:15.241Z,7.40
2018-02-24T16:52:43.482Z,7.50
2018-02-24T16:55:10.953Z,7.40
2018-02-24T16:57:39.230Z,7.40
2018-02-24T17:00:06.705Z,7.40
2018-02-24T17:02:37.163Z,7.30
2018-02-24T17:05:07.097Z,7.30
2018-02-24T17:07:34.579Z,7.20
2018-02-24T17:10:02.563Z,7.30
2018-02-24T17:12:32.061Z,7.30
2018-02-24T17:15:02.442Z,7.30
2018-02-24T17:17:29.983Z,7.20
2018-02-24T17:20:01.580Z,7.20
2018-02-24T17:22:33.969Z,6.90
2018-02-24T17:25:11.431Z,6.90
2018-02-24T17:27:44.996Z,6.90
2018-02-24T17:30:15.431Z,7.00
2018-02-24T17:32:43.296Z,7.00
2018-02-24T17:35:15.531Z,7.00
2018-02-24T17:37:46.199Z,7.00
2018-02-24T17:40:15.204Z,7.00
2018-02-24T17:42:42.764Z,7.00
2018-02-24T17:45:10.547Z,7.00
2018-02-24T17:47:41.081Z,7.00
2018-02-24T17:50:09.911Z,6.90
2018-02-24T17:52:37.684Z,6.90
2018-02-24T17:55:09.708Z,6.40
2018-02-24T17:57:39.733Z,6.40
2018-02-24T18:00:10.305Z,6.40
2018-02-24T18:02:44.389Z,6.70
2018-02-24T18:05:13.212Z,6.70
2018-02-24T18:07:43.844Z,6.60
2018-02-24T18:10:13.443Z,6.60
2018-02-24T18:12:44.986Z,6.50
2018-02-24T18:15:12.456Z,6.40
2018-02-24T18:17:42.011Z,6.60
2018-02-24T18:20:12.100Z,6.60
2018-02-24T18:22:42.297Z,6.60
2018-02-24T18:25:13.549Z,6.50
2018-02-24T18:27:43.494Z,6.30
2018-02-24T18:30:11.728Z,6.60
2018-02-24T18:32:39.197Z,6.60
2018-02-24T18:35:06.688Z,6.50
2018-02-24T18:37:34.929Z,6.50
2018-02-24T18:40:02.401Z,6.50
2018-02-24T18:42:29.917Z,6.60
2018-02-24T18:44:57.429Z,6.60
2018-02-24T18:47:25.676Z,6.60
2018-02-24T18:49:53.170Z,6.50
2018-02-24T18:52:21.409Z,6.60
2018-02-24T18:54:48.897Z,6.50
2018-02-24T18:57:17.156Z,6.50
2018-02-24T18:59:44.628Z,6.50
2018-02-24T19:02:12.097Z,6.40
2018-02-24T19:04:40.340Z,6.40
2018-02-24T19:07:07.821Z,6.40
2018-02-24T19:09:35.311Z,6.50
2018-02-24T19:12:02.784Z,6.20
2018-02-24T19:14:30.263Z,6.00
2018-02-24T19:16:57.754Z,6.30
2018-02-24T19:19:26.037Z,6.30
2018-02-24T19:21:54.305Z,6.30
2018-02-24T19:24:21.781Z,6.20
2018-02-24T19:26:50.049Z,6.40
2018-02-24T19:29:17.537Z,6.40
2018-02-24T19:31:45.068Z,6.60
2018-02-24T19:34:12.676Z,6.50
2018-02-24T19:36:40.153Z,6.50
2018-02-24T19:39:07.628Z,6.60
2018-02-24T19:41:35.127Z,6.50
2018-02-24T19:44:03.366Z,6.40
2018-02-24T19:46:30.845Z,6.40
2018-02-24T19:48:58.342Z,6.50
2018-02-24T19:51:25.814Z,6.50
2018-02-24T19:53:53.312Z,6.30
2018-02-24T19:56:20.786Z,6.40
2018-02-24T19:58:49.021Z,6.50
2018-02-24T20:01:17.649Z,6.50
2018-02-24T20:03:45.886Z,6.40
2018-02-24T20:06:13.379Z,6.30
2018-02-24T20:08:41.620Z,6.80
2018-02-24T20:11:09.101Z,6.80
2018-02-24T20:13:38.120Z,6.80
2018-02-24T20:16:06.356Z,6.50
2018-02-24T20:18:33.840Z,6.50
2018-02-24T20:21:02.841Z,6.20
2018-02-24T20:23:31.090Z,6.20
2018-02-24T20:25:58.561Z,6.10
2018-02-24T20:28:26.045Z,6.00
2018-02-24T20:30:54.276Z,5.90
2018-02-24T20:33:21.769Z,5.90
2018-02-24T20:35:50.055Z,6.10
2018-02-24T20:38:18.292Z,6.10
2018-02-24T20:40:45.780Z,6.00
2018-02-24T20:43:14.028Z,6.00
2018-02-24T20:45:41.638Z,6.00
2018-02-24T20:48:09.952Z,5.90
2018-02-24T20:50:37.420Z,5.80
2018-02-24T20:53:04.909Z,6.00
2018-02-24T20:55:32.407Z,6.00
2018-02-24T20:57:59.877Z,5.80
2018-02-24T21:00:27.355Z,6.10
2018-02-24T21:02:54.870Z,6.10
2018-02-24T21:05:23.205Z,6.20
2018-02-24T21:07:50.704Z,6.20
2018-02-24T21:10:18.964Z,6.30
2018-02-24T21:12:47.625Z,6.30
2018-02-24T21:15:15.219Z,6.30
2018-02-24T21:17:43.484Z,6.30
2018-02-24T21:20:11.051Z,6.30
2018-02-24T21:22:39.329Z,6.30
2018-02-24T21:25:07.612Z,6.40
2018-02-24T21:27:35.856Z,6.30
2018-02-24T21:30:03.339Z,6.30
2018-02-24T21:32:30.904Z,6.20
2018-02-24T21:34:59.162Z,6.10
2018-02-24T21:37:26.638Z,6.10
2018-02-24T21:39:54.928Z,5.90
2018-02-24T21:42:23.190Z,6.10
2018-02-24T21:44:51.449Z,6.20
2018-02-24T21:47:18.917Z,6.20
2018-02-24T21:49:46.492Z,6.40
2018-02-24T21:52:14.806Z,6.10
2018-02-24T21:54:43.184Z,6.10
2018-02-24T21:57:10.693Z,5.90
2018-02-24T21:59:42.488Z,6.00
2018-02-24T22:02:11.477Z,6.20
2018-02-24T22:04:39.921Z,6.20
2018-02-24T22:07:07.606Z,6.20
2018-02-24T22:09:36.332Z,6.40
2018-02-24T22:12:04.155Z,6.30
2018-02-24T22:14:32.392Z,6.10
2018-02-24T22:17:00.012Z,6.10
2018-02-24T22:19:28.324Z,6.30
2018-02-24T22:21:55.837Z,6.20
2018-02-24T22:24:24.113Z,6.40
2018-02-24T22:26:52.372Z,6.10
2018-02-24T22:29:19.865Z,6.10
2018-02-24T22:31:48.201Z,6.50
2018-02-24T22:34:15.673Z,6.40
2018-02-24T22:36:43.223Z,6.50
2018-02-24T22:39:10.734Z,6.50
2018-02-24T22:41:39.157Z,6.40
2018-02-24T22:44:06.655Z,6.40
2018-02-24T22:46:34.901Z,6.30
2018-02-24T22:49:03.513Z,6.20
2018-02-24T22:51:31.761Z,6.20
2018-02-24T22:53:59.233Z,6.20
2018-02-24T22:56:26.805Z,6.30
2018-02-24T22:58:55.049Z,6.10
2018-02-24T23:01:22.520Z,6.10
2018-02-24T23:03:50.018Z,6.00
2018-02-24T23:06:17.497Z,6.10
2018-02-24T23:08:45.014Z,6.30
2018-02-24T23:11:12.508Z,6.30
2018-02-24T23:13:39.981Z,6.40
2018-02-24T23:16:07.459Z,6.30
2018-02-24T23:18:34.955Z,6.40
2018-02-24T23:21:03.205Z,6.20
2018-02-24T23:23:30.684Z,6.10
2018-02-24T23:25:58.173Z,6.00
2018-02-24T23:28:25.645Z,5.90
2018-02-24T23:30:54.100Z,6.30
2018-02-24T23:33:22.362Z,6.50
2018-02-24T23:35:50.612Z,6.50
2018-02-24T23:38:18.141Z,6.40
2018-02-24T23:40:46.779Z,6.30
2018-02-24T23:43:14.249Z,6.30
2018-02-24T23:45:42.488Z,6.30
2018-02-24T23:48:09.981Z,6.30
2018-02-24T23:50:38.221Z,6.40
2018-02-24T23:53:05.696Z,6.40
2018-02-24T23:55:33.191Z,6.30
2018-02-24T23:58:01.429Z,6.10
